Time;durP1;ratioP1;P1;durP2;ratioP2;P2;SDS_P1;SDS_P2;PMS_P1;PMS_P2;Temp;Humidity;BMP_temperature;BMP_pressure;BME280_temperature;BME280_humidity;BME280_pressure;Samples;Min_cycle;Max_cycle;Signal;HPM_P1;HPM_P2
2021/01/31 00:01:07;;;;;;;47.25;27.45;;;;;;;-2.10;78.57;97794.83;123362;1102;64931;-77
2021/01/31 00:03:34;;;;;;;56.43;32.00;;;;;;;-2.14;79.28;97800.20;123378;1102;64837;-78
2021/01/31 00:06:03;;;;;;;55.83;30.93;;;;;;;-2.15;79.35;97801.13;123382;1103;65017;-79
2021/01/31 00:08:30;;;;;;;57.77;30.80;;;;;;;-2.19;78.93;97808.19;123452;1102;65013;-78
2021/01/31 00:10:59;;;;;;;55.40;30.40;;;;;;;-2.18;78.86;97809.06;123322;1103;65136;-78
2021/01/31 00:13:27;;;;;;;60.43;30.70;;;;;;;-2.19;79.29;97809.95;123392;1102;64886;-78
2021/01/31 00:15:54;;;;;;;57.13;31.57;;;;;;;-2.21;79.06;97807.41;123412;1102;65310;-78
2021/01/31 00:18:27;;;;;;;60.57;32.13;;;;;;;-2.22;78.82;97805.69;123351;1106;65305;-78
2021/01/31 00:20:56;;;;;;;60.17;32.27;;;;;;;-2.23;78.83;97802.23;123347;1105;64972;-79
2021/01/31 00:23:23;;;;;;;62.60;33.40;;;;;;;-2.22;79.60;97808.30;123348;1105;64985;-79
2021/01/31 00:25:50;;;;;;;61.77;35.03;;;;;;;-2.23;78.74;97807.45;123301;1105;64940;-78
2021/01/31 00:28:23;;;;;;;61.47;34.30;;;;;;;-2.25;78.76;97808.41;123482;1101;64934;-79
2021/01/31 00:30:50;;;;;;;58.47;33.00;;;;;;;-2.27;78.84;97816.28;123373;1102;64889;-79
2021/01/31 00:33:24;;;;;;;54.27;30.97;;;;;;;-2.28;78.81;97808.52;123399;1102;64905;-78
2021/01/31 00:35:55;;;;;;;61.13;31.67;;;;;;;-2.34;79.15;97806.98;123399;1102;65052;-78
2021/01/31 00:38:24;;;;;;;57.90;31.93;;;;;;;-2.35;78.98;97809.62;123444;1102;64905;-79
2021/01/31 00:40:51;;;;;;;64.80;34.60;;;;;;;-2.40;79.02;97808.93;123485;1102;64905;-78
2021/01/31 00:43:18;;;;;;;61.57;33.70;;;;;;;-2.44;79.58;97809.03;123369;1103;64835;-79
2021/01/31 00:45:45;;;;;;;59.65;32.00;;;;;;;-2.51;79.78;97804.92;123365;1102;64885;-79
2021/01/31 00:48:12;;;;;;;61.73;32.07;;;;;;;-2.55;79.29;97805.95;123406;1102;65017;-77
2021/01/31 00:50:40;;;;;;;55.43;29.87;;;;;;;-2.59;79.81;97808.70;123356;1102;64885;-79
2021/01/31 00:53:08;;;;;;;59.73;31.87;;;;;;;-2.61;79.18;97815.72;123411;1103;64950;-78
2021/01/31 00:55:35;;;;;;;61.03;33.93;;;;;;;-2.66;79.63;97819.34;123477;1102;64806;-78
2021/01/31 00:58:01;;;;;;;61.33;32.83;;;;;;;-2.66;80.01;97818.47;123377;1102;64892;-78
2021/01/31 01:00:33;;;;;;;64.67;34.60;;;;;;;-2.69;79.54;97815.97;123389;1102;65068;-78
2021/01/31 01:03:01;;;;;;;65.65;33.85;;;;;;;-2.69;79.47;97813.36;123399;1102;64960;-79
2021/01/31 01:05:29;;;;;;;62.23;35.07;;;;;;;-2.69;79.59;97816.81;123360;1102;64831;-78
2021/01/31 01:07:56;;;;;;;64.87;36.57;;;;;;;-2.71;80.21;97813.42;123380;1102;64920;-78
2021/01/31 01:10:26;;;;;;;65.73;35.17;;;;;;;-2.68;80.00;97815.92;123388;1101;64905;-78
2021/01/31 01:12:53;;;;;;;65.72;35.35;;;;;;;-2.68;80.32;97815.92;123332;1102;65001;-79
2021/01/31 01:15:21;;;;;;;60.60;33.10;;;;;;;-2.65;79.58;97810.61;123380;1102;64981;-79
2021/01/31 01:17:48;;;;;;;64.37;34.47;;;;;;;-2.65;79.76;97813.22;123418;1102;64905;-79
2021/01/31 01:20:15;;;;;;;62.73;32.20;;;;;;;-2.63;80.13;97802.74;123337;1102;64908;-79
2021/01/31 01:22:42;;;;;;;66.90;34.80;;;;;;;-2.65;80.04;97802.78;123365;1102;64908;-79
2021/01/31 01:25:10;;;;;;;64.85;35.55;;;;;;;-2.64;80.50;97803.63;123320;1102;64882;-79
2021/01/31 01:27:38;;;;;;;65.23;35.60;;;;;;;-2.69;80.03;97795.10;123434;1102;64968;-79
2021/01/31 01:30:08;;;;;;;63.23;32.30;;;;;;;-2.73;80.08;97798.73;123379;1102;64879;-79
2021/01/31 01:32:34;;;;;;;;;;;;;;;-2.77;80.58;97799.72;123460;1102;65288;-79
2021/01/31 01:35:00;;;;;;;66.13;37.60;;;;;;;-2.82;80.19;97797.26;123396;1102;64931;-79
2021/01/31 01:37:27;;;;;;;74.15;39.70;;;;;;;-2.86;80.69;97795.67;123327;1102;64953;-79
2021/01/31 01:39:53;;;;;;;66.93;39.20;;;;;;;-2.89;80.85;97799.23;123419;1102;64885;-79
2021/01/31 01:42:19;;;;;;;66.05;35.40;;;;;;;-2.92;80.45;97807.15;123399;1102;64892;-78
2021/01/31 01:44:46;;;;;;;68.93;36.27;;;;;;;-2.98;80.04;97804.72;123397;1102;64984;-78
2021/01/31 01:47:30;;;;;;;64.87;35.83;;;;;;;-3.02;80.14;97803.12;123404;1102;64889;-79
2021/01/31 01:50:05;;;;;;;67.23;37.37;;;;;;;-3.09;80.05;97806.82;123410;1102;65024;-79
2021/01/31 01:52:37;;;;;;;66.53;37.43;;;;;;;-3.10;81.19;97811.19;123371;1102;65013;-79
2021/01/31 01:55:06;;;;;;;67.50;36.47;;;;;;;-3.10;80.59;97807.73;123395;1102;64933;-79
2021/01/31 01:57:46;;;;;;;62.40;34.67;;;;;;;-3.11;80.30;97804.28;123398;1102;64885;-79
2021/01/31 02:00:13;;;;;;;65.43;36.50;;;;;;;-3.11;80.80;97806.88;123378;1102;64889;-79
2021/01/31 02:02:43;;;;;;;63.10;34.30;;;;;;;-3.07;81.03;97812.00;123394;1102;65042;-78
2021/01/31 02:05:15;;;;;;;66.00;35.33;;;;;;;-3.07;81.20;97810.23;123381;1102;64969;-78
2021/01/31 02:07:44;;;;;;;64.30;35.05;;;;;;;-3.04;81.18;97817.11;123346;1102;64879;-80
2021/01/31 02:10:12;;;;;;;62.03;32.90;;;;;;;-3.04;80.80;97814.50;123425;1102;64899;-79
2021/01/31 02:12:40;;;;;;;73.50;36.27;;;;;;;-3.03;81.29;97817.04;123423;1102;64934;-80
2021/01/31 02:15:09;;;;;;;61.57;35.17;;;;;;;-3.02;80.74;97823.98;123367;1102;64984;-79
2021/01/31 02:17:53;;;;;;;60.55;35.05;;;;;;;-3.00;81.14;97823.91;123411;1102;65179;-79
2021/01/31 02:20:57;;;;;;;67.10;36.97;;;;;;;-3.00;80.96;97810.88;123412;1101;64885;-79
2021/01/31 02:23:36;;;;;;;72.00;39.07;;;;;;;-3.01;80.79;97819.61;123354;1102;65342;-79
2021/01/31 02:26:07;;;;;;;67.27;38.00;;;;;;;-3.02;81.09;97815.31;123351;1102;64902;-79
2021/01/31 02:28:43;;;;;;;65.77;37.37;;;;;;;-3.04;81.30;97815.34;123358;1102;64904;-79
2021/01/31 02:31:56;;;;;;;73.57;40.90;;;;;;;-3.00;81.19;97821.30;123384;1102;64911;-79
2021/01/31 02:34:31;;;;;;;66.80;40.20;;;;;;;-2.97;80.79;97826.45;123365;1102;64888;-79
2021/01/31 02:37:36;;;;;;;79.50;46.75;;;;;;;-2.96;81.45;97828.98;123369;1102;64937;-78
2021/01/31 02:40:10;;;;;;;76.10;43.93;;;;;;;-2.92;81.01;97825.40;123377;1102;65345;-81
2021/01/31 02:42:48;;;;;;;73.93;43.00;;;;;;;-2.90;80.86;97826.20;123372;1102;64978;-78
2021/01/31 02:45:28;;;;;;;57.25;32.70;;;;;;;-2.90;80.62;97827.94;123355;1102;64860;-79
2021/01/31 02:48:09;;;;;;;53.27;31.90;;;;;;;-2.91;80.61;97824.48;123393;1102;64863;-78
2021/01/31 02:50:55;;;;;;;46.90;27.90;;;;;;;-2.94;80.89;97834.16;123319;1102;64959;-78
2021/01/31 02:53:27;;;;;;;40.33;24.83;;;;;;;-2.97;79.93;97839.48;123405;1102;64886;-79
2021/01/31 02:55:57;;;;;;;41.00;25.17;;;;;;;-3.06;79.68;97837.98;123379;1102;65181;-79
2021/01/31 02:58:29;;;;;;;38.43;23.17;;;;;;;-3.13;80.19;97842.55;123385;1102;64895;-79
2021/01/31 03:01:18;;;;;;;39.33;23.50;;;;;;;-3.18;80.04;97847.05;123339;1102;64885;-79
2021/01/31 03:04:04;;;;;;;39.00;22.55;;;;;;;-3.25;80.35;97850.73;123329;1102;65261;-79
2021/01/31 03:06:37;;;;;;;38.47;23.37;;;;;;;-3.34;79.67;97858.84;123371;1102;64854;-79
2021/01/31 03:09:19;;;;;;;33.53;20.00;;;;;;;-3.41;80.33;97865.11;123338;1102;64879;-78
2021/01/31 03:11:58;;;;;;;35.27;21.43;;;;;;;-3.50;79.39;97862.76;123457;1102;64886;-78
2021/01/31 03:14:30;;;;;;;31.87;20.05;;;;;;;-3.59;79.37;97866.48;123355;1102;64908;-78
2021/01/31 03:17:07;;;;;;;32.70;20.33;;;;;;;-3.67;79.22;97874.52;123394;1102;64911;-78
2021/01/31 03:19:45;;;;;;;35.83;21.53;;;;;;;-3.76;79.68;97878.23;123346;1102;64940;-78
2021/01/31 03:22:27;;;;;;;35.90;22.27;;;;;;;-3.80;79.69;97881.80;123349;1102;64896;-78
2021/01/31 03:24:58;;;;;;;34.17;20.83;;;;;;;-3.84;80.28;97876.75;123425;1102;64888;-79
2021/01/31 03:27:32;;;;;;;33.50;20.37;;;;;;;-3.90;80.03;97880.34;123335;1102;64934;-78
2021/01/31 03:29:58;;;;;;;35.30;21.30;;;;;;;-3.95;79.37;97879.61;123362;1102;64981;-79
2021/01/31 03:32:31;;;;;;;34.87;21.10;;;;;;;-3.99;79.50;97885.81;123347;1105;64883;-78
2021/01/31 03:35:23;;;;;;;31.80;19.27;;;;;;;-4.02;80.30;97888.50;123360;1102;65058;-78
2021/01/31 03:38:14;;;;;;;36.00;20.80;;;;;;;-4.03;79.67;97891.97;123326;1102;64982;-79
2021/01/31 03:40:47;;;;;;;34.70;20.00;;;;;;;-4.03;79.63;97895.45;123381;1102;64917;-78
2021/01/31 03:43:14;;;;;;;36.00;19.90;;;;;;;-4.02;79.52;97904.11;123348;1102;64984;-78
2021/01/31 03:46:19;;;;;;;36.77;23.10;;;;;;;-4.04;80.26;97900.69;123344;1103;64997;-80
2021/01/31 03:48:51;;;;;;;34.53;20.77;;;;;;;-4.02;80.54;97909.31;123340;1102;64882;-78
2021/01/31 03:51:18;;;;;;;30.67;18.10;;;;;;;-4.03;80.10;97900.66;123429;1102;64925;-78
2021/01/31 03:53:46;;;;;;;32.03;18.93;;;;;;;-4.07;79.67;97906.83;123379;1102;64888;-79
2021/01/31 03:56:18;;;;;;;30.20;18.83;;;;;;;-4.08;79.42;97909.45;123386;1102;64902;-78
2021/01/31 03:58:48;;;;;;;37.13;20.40;;;;;;;-4.13;79.63;97912.20;123365;1102;64914;-78
2021/01/31 04:01:15;;;;;;;26.87;17.33;;;;;;;-4.18;79.92;97901.05;123371;1102;65017;-77
2021/01/31 04:03:51;;;;;;;25.17;16.73;;;;;;;-4.26;79.26;97906.45;123394;1102;64924;-78
2021/01/31 04:06:21;;;;;;;26.27;17.53;;;;;;;-4.32;79.06;97911.78;123419;1101;65020;-78
2021/01/31 04:08:54;;;;;;;28.50;17.77;;;;;;;-4.34;79.75;97921.39;123391;1102;64934;-78
2021/01/31 04:11:36;;;;;;;28.43;17.17;;;;;;;-4.39;78.86;97927.59;123416;1102;64834;-78
2021/01/31 04:14:16;;;;;;;31.20;18.03;;;;;;;-4.46;79.57;97925.12;123338;1102;64898;-78
2021/01/31 04:16:48;;;;;;;27.37;16.37;;;;;;;-4.43;79.66;97924.20;123355;1102;65298;-78
2021/01/31 04:19:16;;;;;;;29.50;17.73;;;;;;;-4.42;79.80;97931.12;123404;1102;64907;-78
2021/01/31 04:21:42;;;;;;;26.85;16.65;;;;;;;-4.47;79.59;97927.78;123398;1102;64885;-78
2021/01/31 04:24:09;;;;;;;27.77;16.33;;;;;;;-4.51;79.88;97932.18;123360;1102;64908;-78
2021/01/31 04:26:36;;;;;;;28.70;17.60;;;;;;;-4.55;79.07;97935.76;123374;1102;65058;-79
2021/01/31 04:29:03;;;;;;;28.60;16.57;;;;;;;-4.53;80.01;97933.11;123367;1102;64937;-78
2021/01/31 04:31:30;;;;;;;27.70;15.87;;;;;;;-4.53;79.91;97938.30;123361;1102;64896;-78
2021/01/31 04:33:56;;;;;;;25.90;15.57;;;;;;;-4.57;79.00;97927.14;123373;1102;65014;-79
2021/01/31 04:36:24;;;;;;;26.07;16.80;;;;;;;-4.52;78.88;97935.69;123342;1103;64889;-78
2021/01/31 04:38:51;;;;;;;24.47;17.03;;;;;;;-4.50;79.01;97939.11;123420;1102;65049;-79
2021/01/31 04:41:19;;;;;;;23.47;14.60;;;;;;;-4.45;79.20;97938.97;123359;1102;65288;-78
2021/01/31 04:43:49;;;;;;;23.07;14.60;;;;;;;-4.43;79.05;97943.25;123359;1102;65270;-78
2021/01/31 04:46:20;;;;;;;24.03;16.27;;;;;;;-4.40;79.17;97950.13;123420;1102;64931;-77
2021/01/31 04:49:02;;;;;;;24.93;15.43;;;;;;;-4.42;78.01;97957.98;123389;1102;64892;-77
2021/01/31 04:51:47;;;;;;;23.75;15.35;;;;;;;-4.43;78.17;97955.41;123415;1102;64889;-77
2021/01/31 04:54:44;;;;;;;26.00;17.27;;;;;;;-4.47;78.57;97958.98;123358;1106;64886;-78
2021/01/31 04:57:36;;;;;;;33.30;19.03;;;;;;;-4.50;79.14;97966.83;123364;1101;64934;-78
2021/01/31 05:00:07;;;;;;;29.97;18.20;;;;;;;-4.47;79.02;97958.98;123368;1105;64828;-78
2021/01/31 05:02:41;;;;;;;26.03;16.93;;;;;;;-4.52;78.84;97966.88;123400;1106;65071;-78
2021/01/31 05:05:20;;;;;;;23.83;17.47;;;;;;;-4.58;79.15;97969.63;123325;1101;64940;-79
2021/01/31 05:07:52;;;;;;;29.85;20.05;;;;;;;-4.64;78.44;97972.34;123429;1102;64940;-80
2021/01/31 05:10:19;;;;;;;30.73;21.17;;;;;;;-4.64;78.68;97978.40;123396;1102;65214;-78
2021/01/31 05:12:58;;;;;;;29.70;20.60;;;;;;;-4.60;79.46;97973.16;123385;1102;64879;-78
2021/01/31 05:15:29;;;;;;;28.63;21.33;;;;;;;-4.65;79.26;97971.50;123366;1102;64886;-78
2021/01/31 05:18:00;;;;;;;29.97;20.83;;;;;;;-4.66;79.44;97989.72;123397;1102;64908;-79
2021/01/31 05:20:31;;;;;;;30.37;21.20;;;;;;;-4.62;79.40;97980.98;123395;1102;64984;-78
2021/01/31 05:22:59;;;;;;;32.93;21.43;;;;;;;-4.60;79.57;97991.36;123404;1102;64908;-79
2021/01/31 05:25:30;;;;;;;31.83;23.03;;;;;;;-4.57;79.00;97984.33;123450;1102;65007;-79
2021/01/31 05:27:59;;;;;;;36.47;23.07;;;;;;;-4.52;79.17;97995.48;123323;1103;64887;-78
2021/01/31 05:30:30;;;;;;;41.43;24.97;;;;;;;-4.51;78.80;97989.37;123323;1105;64941;-79
2021/01/31 05:33:06;;;;;;;44.60;26.23;;;;;;;-4.49;78.89;97985.00;123395;1102;64889;-78
2021/01/31 05:35:48;;;;;;;46.57;28.33;;;;;;;-4.40;79.25;97991.73;123396;1102;64984;-78
2021/01/31 05:38:37;;;;;;;48.50;28.60;;;;;;;-4.37;79.75;98002.09;123367;1102;64907;-79
2021/01/31 05:41:24;;;;;;;48.43;28.07;;;;;;;-4.30;79.18;98013.19;123408;1102;64936;-78
2021/01/31 05:44:05;;;;;;;43.65;27.50;;;;;;;-4.25;79.65;98011.34;123360;1105;64998;-79
2021/01/31 05:46:42;;;;;;;41.87;25.37;;;;;;;-4.17;79.48;98005.95;123367;1102;64899;-78
2021/01/31 05:49:28;;;;;;;38.23;23.40;;;;;;;-4.06;79.59;98009.14;123388;1102;65090;-78
2021/01/31 05:51:56;;;;;;;56.35;35.75;;;;;;;-3.99;79.59;98014.16;123410;1102;65266;-79
2021/01/31 05:54:35;;;;;;;48.27;30.57;;;;;;;-4.01;78.69;98022.91;123425;1102;64857;-78
2021/01/31 05:57:02;;;;;;;47.93;30.50;;;;;;;-4.00;79.71;98016.83;123390;1102;64982;-79
2021/01/31 05:59:41;;;;;;;53.85;35.05;;;;;;;-3.92;78.79;98024.41;123366;1102;64888;-79
2021/01/31 06:02:08;;;;;;;45.73;28.93;;;;;;;-3.86;78.92;98024.28;123425;1102;64908;-79
2021/01/31 06:04:34;;;;;;;46.43;29.90;;;;;;;-3.85;79.37;98033.80;123397;1101;64896;-79
2021/01/31 06:07:14;;;;;;;46.97;27.57;;;;;;;-3.81;78.82;98035.44;123379;1102;64854;-79
2021/01/31 06:09:45;;;;;;;;;;;;;;;-3.76;78.97;98034.43;123404;1102;64943;-79
2021/01/31 06:12:24;;;;;;;36.83;23.90;;;;;;;-3.73;78.72;98032.65;123395;1102;64921;-79
2021/01/31 06:15:23;;;;;;;44.37;27.67;;;;;;;-3.72;79.39;98036.95;123421;1102;65349;-79
2021/01/31 06:17:59;;;;;;;35.00;23.47;;;;;;;-3.62;78.68;98033.22;123364;1102;64910;-79
2021/01/31 06:20:30;;;;;;;42.87;27.77;;;;;;;-3.66;78.14;98039.39;123420;1102;64941;-78
2021/01/31 06:22:58;;;;;;;38.43;24.60;;;;;;;-3.85;78.50;98045.05;123364;1102;64857;-78
2021/01/31 06:25:27;;;;;;;46.47;25.40;;;;;;;-3.89;78.15;98040.83;123365;1105;64838;-78
2021/01/31 06:28:10;;;;;;;53.02;27.90;;;;;;;-3.89;78.16;98039.98;123373;1102;64857;-79
2021/01/31 06:30:57;;;;;;;33.40;20.33;;;;;;;-3.87;77.81;98039.05;123450;1102;65093;-79
2021/01/31 06:33:24;;;;;;;30.93;18.43;;;;;;;-3.82;78.29;98037.20;123395;1102;64946;-78
2021/01/31 06:36:13;;;;;;;39.93;23.93;;;;;;;-3.82;78.39;98042.40;123369;1102;65006;-78
2021/01/31 06:39:25;;;;;;;35.00;20.53;;;;;;;-3.78;77.90;98043.17;123346;1103;64953;-79
2021/01/31 06:42:29;;;;;;;42.37;24.97;;;;;;;-3.81;78.29;98048.45;123358;1102;64847;-79
2021/01/31 06:44:55;;;;;;;46.47;27.33;;;;;;;-3.79;78.50;98046.64;123353;1102;64880;-78
2021/01/31 06:47:33;;;;;;;45.90;27.45;;;;;;;-3.84;77.90;98049.39;123406;1101;64905;-78
2021/01/31 06:50:10;;;;;;;51.67;30.20;;;;;;;-3.84;78.21;98056.34;123344;1102;65275;-78
2021/01/31 06:52:58;;;;;;;49.40;30.23;;;;;;;-3.92;78.49;98048.72;123368;1102;64914;-78
2021/01/31 06:55:52;;;;;;;62.90;34.30;;;;;;;-3.99;78.52;98052.35;123339;1102;64953;-79
2021/01/31 06:58:28;;;;;;;62.10;35.33;;;;;;;-4.09;78.50;98054.30;123360;1102;64910;-78
2021/01/31 07:00:54;;;;;;;62.57;34.97;;;;;;;-4.15;77.74;98056.21;123345;1102;64956;-79
2021/01/31 07:03:58;;;;;;;69.50;38.43;;;;;;;-4.18;77.90;98062.34;123357;1102;65107;-79
2021/01/31 07:07:02;;;;;;;68.57;35.60;;;;;;;-4.12;78.69;98061.34;123362;1102;64854;-79
2021/01/31 07:09:49;;;;;;;66.23;37.90;;;;;;;-4.11;78.68;98058.69;123440;1102;64982;-79
2021/01/31 07:12:25;;;;;;;70.17;37.73;;;;;;;-4.11;78.27;98063.03;123442;1102;64864;-79
2021/01/31 07:14:55;;;;;;;60.30;34.90;;;;;;;-4.13;78.32;98072.62;123263;1102;64901;-79
2021/01/31 07:17:34;;;;;;;68.17;36.50;;;;;;;-4.12;78.56;98063.94;123364;1102;64983;-79
2021/01/31 07:20:07;;;;;;;54.47;34.77;;;;;;;-4.10;78.27;98064.77;123403;1102;64920;-79
2021/01/31 07:22:55;;;;;;;64.67;35.73;;;;;;;-4.10;78.58;98077.78;123411;1102;64924;-79
2021/01/31 07:25:30;;;;;;;60.37;36.30;;;;;;;-4.12;78.13;98063.94;123399;1102;64966;-79
2021/01/31 07:28:13;;;;;;;63.70;36.05;;;;;;;-4.14;78.46;98076.97;123369;1102;64917;-79
2021/01/31 07:30:53;;;;;;;58.60;35.45;;;;;;;-4.17;78.20;98084.84;123306;1102;64972;-78
2021/01/31 07:33:25;;;;;;;60.63;36.30;;;;;;;-4.18;77.62;98079.70;123336;1102;64988;-79
2021/01/31 07:35:58;;;;;;;62.30;35.85;;;;;;;-4.13;78.23;98083.91;123422;1102;64892;-79
2021/01/31 07:38:49;;;;;;;65.40;34.70;;;;;;;-4.11;77.88;98083.85;123369;1102;65044;-79
2021/01/31 07:41:16;;;;;;;55.30;36.30;;;;;;;-4.13;77.62;98076.09;123331;1105;64885;-78
2021/01/31 07:43:44;;;;;;;62.70;36.90;;;;;;;-4.09;78.04;98071.67;123329;1103;65058;-78
2021/01/31 07:46:13;;;;;;;62.40;38.57;;;;;;;-4.04;78.33;98081.08;123317;1103;64928;-77
2021/01/31 07:48:50;;;;;;;56.67;35.60;;;;;;;-3.93;78.28;98088.63;123437;1102;64933;-78
2021/01/31 07:51:39;;;;;;;60.77;34.13;;;;;;;-3.82;77.72;98089.25;123430;1102;64911;-79
2021/01/31 07:54:28;;;;;;;53.87;33.90;;;;;;;-3.77;77.42;98083.91;123370;1102;64937;-79
2021/01/31 07:56:55;;;;;;;61.20;34.27;;;;;;;-3.76;77.42;98089.09;123382;1102;64940;-79
2021/01/31 07:59:28;;;;;;;55.47;35.13;;;;;;;-3.80;77.05;98092.66;123428;1102;64905;-79
2021/01/31 08:01:56;;;;;;;57.73;35.57;;;;;;;-3.86;77.19;98086.75;123358;1102;64934;-79
2021/01/31 08:04:35;;;;;;;55.15;34.15;;;;;;;-3.82;77.40;98096.18;123407;1102;64940;-78
2021/01/31 08:07:05;;;;;;;47.33;30.60;;;;;;;-3.76;76.77;98093.45;123391;1102;64866;-78
2021/01/31 08:09:35;;;;;;;50.77;33.07;;;;;;;-3.71;76.65;98093.31;123429;1102;64835;-80
2021/01/31 08:12:07;;;;;;;45.35;30.60;;;;;;;-3.62;77.17;98095.72;123403;1102;65311;-80
2021/01/31 08:15:11;;;;;;;47.75;31.40;;;;;;;-3.53;76.81;98100.68;123432;1102;64888;-79
2021/01/31 08:17:54;;;;;;;48.87;30.13;;;;;;;-3.42;77.08;98096.08;123349;1102;65442;-79
2021/01/31 08:20:39;;;;;;;48.83;29.77;;;;;;;-3.36;76.79;98101.13;123383;1102;64908;-79
2021/01/31 08:23:31;;;;;;;49.60;28.80;;;;;;;-3.23;76.23;98093.00;123375;1102;65011;-79
2021/01/31 08:26:05;;;;;;;45.83;31.00;;;;;;;-3.06;76.22;98092.55;123387;1102;65354;-79
2021/01/31 08:28:35;;;;;;;56.65;34.95;;;;;;;-2.89;76.64;98093.80;123406;1102;64907;-78
2021/01/31 08:31:05;;;;;;;74.27;41.27;;;;;;;-2.71;76.21;98088.98;123351;1102;64818;-78
2021/01/31 08:34:01;;;;;;;69.45;39.70;;;;;;;-2.58;75.51;98089.47;123371;1102;64914;-77
2021/01/31 08:36:31;;;;;;;78.73;45.43;;;;;;;-2.40;76.00;98098.52;123352;1102;64975;-78
2021/01/31 08:38:59;;;;;;;54.95;33.05;;;;;;;-2.25;75.15;98096.31;123414;1102;65008;-79
2021/01/31 08:41:26;;;;;;;44.63;25.57;;;;;;;-2.12;74.44;98093.34;123365;1105;64919;-79
2021/01/31 08:44:10;;;;;;;39.83;24.63;;;;;;;-2.06;74.40;98090.53;123692;1102;64969;-81
2021/01/31 08:46:56;;;;;;;40.50;23.15;;;;;;;-1.96;73.88;98084.12;123317;1102;64885;-80
2021/01/31 08:49:23;;;;;;;46.83;26.87;;;;;;;-1.83;73.24;98089.83;123309;1102;64897;-80
2021/01/31 08:52:03;;;;;;;48.10;27.65;;;;;;;-1.72;72.95;98082.49;123375;1102;64943;-80
2021/01/31 08:54:29;;;;;;;;;;;;;;;-1.58;72.93;98092.48;123352;1102;64934;-79
2021/01/31 08:57:00;;;;;;;39.90;23.05;;;;;;;-1.45;73.08;98088.59;123380;1102;64934;-79
2021/01/31 08:59:39;;;;;;;34.93;20.33;;;;;;;-1.30;72.81;98089.83;123356;1102;64934;-79
2021/01/31 09:02:16;;;;;;;30.67;18.33;;;;;;;-1.26;72.12;98088.83;123398;1102;65065;-79
2021/01/31 09:04:56;;;;;;;27.67;19.27;;;;;;;-1.26;71.45;98091.44;123415;1102;64952;-79
2021/01/31 09:07:40;;;;;;;27.70;17.73;;;;;;;-1.24;71.31;98086.14;123436;1101;64944;-79
2021/01/31 09:10:12;;;;;;;25.53;17.27;;;;;;;-1.23;71.81;98088.72;123432;1102;65011;-80
2021/01/31 09:12:38;;;;;;;24.80;16.65;;;;;;;-1.13;71.92;98091.88;123374;1102;65066;-79
2021/01/31 09:15:24;;;;;;;25.60;17.80;;;;;;;-1.03;71.17;98088.02;123409;1102;64998;-79
2021/01/31 09:17:51;;;;;;;26.97;17.47;;;;;;;-0.98;71.05;98093.94;123446;1101;64924;-78
2021/01/31 09:20:27;;;;;;;27.13;17.13;;;;;;;-0.95;70.83;98087.75;123405;1102;64914;-79
2021/01/31 09:22:59;;;;;;;29.50;17.87;;;;;;;-0.87;70.49;98097.94;123456;1105;64895;-79
2021/01/31 09:25:27;;;;;;;26.95;17.35;;;;;;;-0.87;70.81;98090.09;123470;1102;64901;-79
2021/01/31 09:28:04;;;;;;;24.20;16.43;;;;;;;-0.91;69.60;98089.36;123389;1102;64901;-79
2021/01/31 09:30:34;;;;;;;23.15;16.30;;;;;;;-1.07;70.27;98096.89;123466;1102;64885;-79
2021/01/31 09:33:13;;;;;;;22.50;15.57;;;;;;;-1.11;69.79;98096.16;123410;1102;64876;-79
2021/01/31 09:35:40;;;;;;;23.00;13.47;;;;;;;-1.08;69.85;98100.39;123385;1102;64893;-79
2021/01/31 09:38:23;;;;;;;20.90;14.93;;;;;;;-1.03;70.17;98103.70;123387;1102;64908;-79
2021/01/31 09:40:53;;;;;;;21.25;14.45;;;;;;;-1.01;69.56;98094.05;123341;1102;64902;-78
2021/01/31 09:43:24;;;;;;;21.77;14.30;;;;;;;-1.07;69.09;98090.81;123376;1102;64911;-78
2021/01/31 09:45:57;;;;;;;21.23;13.10;;;;;;;-1.04;68.54;98095.93;123374;1102;64898;-79
2021/01/31 09:48:26;;;;;;;24.23;14.70;;;;;;;-1.00;69.32;98089.67;123421;1102;64905;-79
2021/01/31 09:51:05;;;;;;;24.03;13.77;;;;;;;-0.94;69.40;98092.09;123452;1101;65208;-79
2021/01/31 09:53:38;;;;;;;23.23;16.00;;;;;;;-0.92;68.46;98091.12;123317;1102;64879;-79
2021/01/31 09:56:11;;;;;;;25.27;16.43;;;;;;;-0.86;68.36;98094.44;123380;1102;64946;-79
2021/01/31 09:58:46;;;;;;;23.23;15.83;;;;;;;-0.78;68.50;98095.86;123382;1103;64905;-79
2021/01/31 10:01:22;;;;;;;23.60;15.90;;;;;;;-0.62;68.53;98087.47;123470;1102;64848;-80
2021/01/31 10:04:05;;;;;;;23.75;15.40;;;;;;;-0.50;68.74;98090.49;123420;1102;64927;-79
2021/01/31 10:06:43;;;;;;;23.60;15.45;;;;;;;-0.40;68.31;98079.67;123399;1102;64870;-79
2021/01/31 10:09:10;;;;;;;20.30;14.27;;;;;;;-0.36;67.75;98083.89;123474;1102;64862;-79
2021/01/31 10:11:47;;;;;;;23.30;14.40;;;;;;;-0.34;67.54;98084.66;123385;1101;64905;-79
2021/01/31 10:14:42;;;;;;;22.33;13.97;;;;;;;-0.33;68.05;98086.39;123416;1102;64934;-79
2021/01/31 10:17:19;;;;;;;24.90;16.17;;;;;;;-0.30;67.89;98081.88;123377;1102;64908;-79
2021/01/31 10:19:46;;;;;;;25.43;16.40;;;;;;;-0.24;68.37;98084.28;123333;1102;65013;-78
2021/01/31 10:22:27;;;;;;;27.00;17.80;;;;;;;-0.15;67.70;98082.22;123371;1102;65348;-79
2021/01/31 10:24:54;;;;;;;27.03;16.77;;;;;;;-0.08;67.64;98083.67;123423;1102;64905;-79
2021/01/31 10:27:28;;;;;;;22.17;16.03;;;;;;;-0.02;67.68;98080.84;123350;1105;65065;-79
2021/01/31 10:30:16;;;;;;;26.57;16.80;;;;;;;-0.05;66.99;98073.95;123350;1102;65011;-78
2021/01/31 10:32:43;;;;;;;24.80;16.07;;;;;;;-0.07;66.87;98072.30;123342;1102;64988;-78
2021/01/31 10:35:24;;;;;;;23.50;15.50;;;;;;;-0.08;67.26;98081.05;123377;1102;64949;-78
2021/01/31 10:37:51;;;;;;;23.57;14.97;;;;;;;-0.16;67.16;98075.27;123367;1102;64885;-79
2021/01/31 10:40:17;;;;;;;27.97;16.90;;;;;;;-0.21;66.39;98080.70;123362;1105;65010;-78
2021/01/31 10:42:44;;;;;;;27.20;16.70;;;;;;;-0.23;66.96;98087.75;123353;1102;64885;-79
2021/01/31 10:45:18;;;;;;;27.23;18.67;;;;;;;-0.22;67.09;98076.35;123385;1102;64933;-78
2021/01/31 10:47:46;;;;;;;26.77;16.70;;;;;;;-0.18;66.57;98085.81;123377;1102;65076;-79
2021/01/31 10:50:19;;;;;;;32.00;17.20;;;;;;;-0.14;66.55;98079.53;123441;1102;64902;-79
2021/01/31 10:52:47;;;;;;;26.37;16.23;;;;;;;-0.06;66.86;98085.32;123462;1103;64930;-79
2021/01/31 10:55:14;;;;;;;26.43;17.20;;;;;;;0.03;67.08;98081.51;123388;1102;64867;-79
2021/01/31 10:57:41;;;;;;;23.70;16.00;;;;;;;0.13;66.48;98075.00;123391;1102;64924;-78
2021/01/31 11:00:10;;;;;;;25.83;16.63;;;;;;;0.19;66.53;98085.22;123391;1101;64947;-78
2021/01/31 11:02:37;;;;;;;23.53;16.63;;;;;;;0.25;66.78;98083.28;123351;1102;64962;-79
2021/01/31 11:05:05;;;;;;;25.40;15.83;;;;;;;0.22;65.84;98076.39;123375;1102;64922;-79
2021/01/31 11:07:32;;;;;;;22.23;15.40;;;;;;;0.19;66.52;98084.38;123427;1102;64889;-79
2021/01/31 11:10:00;;;;;;;26.13;16.83;;;;;;;0.23;66.34;98079.86;123307;1102;64994;-79
2021/01/31 11:12:27;;;;;;;25.90;17.13;;;;;;;0.27;65.44;98079.68;123379;1102;64899;-79
2021/01/31 11:14:53;;;;;;;25.73;16.93;;;;;;;0.26;65.34;98077.95;123341;1105;64911;-79
2021/01/31 11:17:20;;;;;;;25.40;16.17;;;;;;;0.30;65.71;98076.09;123400;1102;64831;-78
2021/01/31 11:19:46;;;;;;;23.03;15.43;;;;;;;0.31;65.53;98080.40;123353;1102;64981;-80
2021/01/31 11:22:13;;;;;;;25.53;16.60;;;;;;;0.28;65.39;98081.37;123392;1102;64834;-79
2021/01/31 11:24:39;;;;;;;22.73;15.27;;;;;;;0.23;64.63;98074.62;123346;1104;64992;-78
2021/01/31 11:27:06;;;;;;;20.87;15.07;;;;;;;0.20;65.38;98070.35;123347;1102;64895;-78
2021/01/31 11:29:33;;;;;;;23.57;15.70;;;;;;;0.18;64.66;98078.27;123389;1102;65061;-88
2021/01/31 11:32:00;;;;;;;24.77;15.30;;;;;;;0.14;64.80;98079.31;123415;1105;64914;-82
2021/01/31 11:34:26;;;;;;;23.40;15.17;;;;;;;0.15;65.06;98078.39;123402;1102;64854;-82
2021/01/31 11:36:52;;;;;;;20.90;14.13;;;;;;;0.18;64.99;98078.27;123892;1102;65030;-82
2021/01/31 11:39:19;;;;;;;23.30;15.47;;;;;;;0.18;65.11;98077.41;123373;1102;64908;-79
2021/01/31 11:41:45;;;;;;;21.97;14.93;;;;;;;0.21;64.97;98070.30;123356;1102;64975;-80
2021/01/31 11:44:12;;;;;;;25.00;15.60;;;;;;;0.24;64.53;98069.33;123367;1102;64902;-79